createdAt,value
2022-12-27T00:01:34.089Z,30.37
2022-12-27T00:04:01.330Z,29.97
2022-12-27T00:06:28.967Z,28.07
2022-12-27T00:08:57.192Z,26.63
2022-12-27T00:11:26.850Z,27.13
2022-12-27T00:13:53.791Z,25.30
2022-12-27T00:16:21.528Z,22.73
2022-12-27T00:18:49.539Z,19.37
2022-12-27T00:21:17.333Z,22.83
2022-12-27T00:23:52.678Z,22.90
2022-12-27T00:26:26.339Z,21.17
2022-12-27T00:28:53.910Z,23.50
2022-12-27T00:31:22.344Z,22.37
2022-12-27T00:33:51.448Z,18.00
2022-12-27T00:36:25.072Z,23.57
2022-12-27T00:38:53.082Z,18.30
2022-12-27T00:41:20.579Z,16.70
2022-12-27T00:43:47.616Z,19.53
2022-12-27T00:46:15.326Z,20.73
2022-12-27T00:48:43.093Z,17.10
2022-12-27T00:51:19.700Z,14.83
2022-12-27T00:53:47.410Z,15.40
2022-12-27T00:56:17.167Z,15.53
2022-12-27T00:58:44.046Z,14.47
2022-12-27T01:01:20.083Z,14.73
2022-12-27T01:03:47.957Z,15.47
2022-12-27T01:06:17.674Z,16.00
2022-12-27T01:08:45.380Z,16.30
2022-12-27T01:11:13.179Z,15.23
2022-12-27T01:13:40.975Z,14.70
2022-12-27T01:16:20.048Z,14.40
2022-12-27T01:18:48.006Z,19.73
2022-12-27T01:21:18.121Z,17.53
2022-12-27T01:23:46.047Z,14.67
2022-12-27T01:26:18.561Z,14.00
2022-12-27T01:28:46.356Z,14.37
2022-12-27T01:31:16.868Z,12.10
2022-12-27T01:33:44.033Z,14.40
2022-12-27T01:36:15.375Z,14.93
2022-12-27T01:38:43.436Z,14.73
2022-12-27T01:41:48.080Z,19.40
2022-12-27T01:44:40.033Z,16.27
2022-12-27T01:47:33.988Z,13.97
2022-12-27T01:50:25.680Z,18.73
2022-12-27T01:52:59.242Z,20.50
2022-12-27T01:55:49.236Z,19.83
2022-12-27T01:58:26.382Z,22.27
2022-12-27T02:00:54.075Z,29.33
2022-12-27T02:03:35.318Z,22.20
2022-12-27T02:06:04.522Z,21.43
2022-12-27T02:08:55.821Z,17.53
2022-12-27T02:11:46.162Z,21.23
2022-12-27T02:14:15.222Z,16.10
2022-12-27T02:17:06.284Z,16.53
2022-12-27T02:19:42.390Z,18.20
2022-12-27T02:23:09.964Z,16.47
2022-12-27T02:26:05.782Z,18.13
2022-12-27T02:28:53.981Z,17.27
2022-12-27T02:31:45.468Z,16.50
2022-12-27T02:34:24.147Z,20.57
2022-12-27T02:36:54.216Z,19.57
2022-12-27T02:39:24.682Z,18.77
2022-12-27T02:42:12.225Z,20.83
2022-12-27T02:44:57.608Z,20.23
2022-12-27T02:47:44.584Z,24.10
2022-12-27T02:50:33.292Z,18.00
2022-12-27T02:53:23.001Z,16.13
2022-12-27T02:56:27.532Z,17.83
2022-12-27T02:59:36.791Z,12.70
2022-12-27T03:02:43.918Z,13.77
2022-12-27T03:05:19.735Z,14.17
2022-12-27T03:08:22.179Z,14.30
2022-12-27T03:11:21.719Z,14.37
2022-12-27T03:14:16.220Z,12.20
2022-12-27T03:16:55.930Z,15.30
2022-12-27T03:19:51.756Z,14.63
2022-12-27T03:22:41.858Z,13.10
2022-12-27T03:25:28.234Z,13.67
2022-12-27T03:28:20.403Z,16.73
2022-12-27T03:31:12.469Z,11.87
2022-12-27T03:33:41.730Z,14.40
2022-12-27T03:36:42.067Z,13.43
2022-12-27T03:39:30.702Z,14.73
2022-12-27T03:42:24.128Z,12.43
2022-12-27T03:44:51.162Z,21.70
2022-12-27T03:47:39.332Z,16.40
2022-12-27T03:50:16.980Z,14.10
2022-12-27T03:52:52.167Z,17.50
2022-12-27T03:55:19.495Z,16.50
2022-12-27T03:57:46.526Z,12.80
2022-12-27T04:00:14.068Z,15.43
2022-12-27T04:02:41.447Z,12.03
2022-12-27T04:05:08.889Z,16.00
2022-12-27T04:07:35.823Z,13.37
2022-12-27T04:10:21.280Z,15.43
2022-12-27T04:13:06.740Z,14.83
2022-12-27T04:15:51.824Z,14.63
2022-12-27T04:18:36.928Z,12.87
2022-12-27T04:21:22.266Z,10.53
2022-12-27T04:24:07.829Z,12.50
2022-12-27T04:26:53.252Z,10.53
2022-12-27T04:29:38.693Z,12.17
2022-12-27T04:32:24.491Z,10.47
2022-12-27T04:34:51.379Z,12.80
2022-12-27T04:37:19.867Z,9.83
2022-12-27T04:40:06.253Z,8.70
2022-12-27T04:42:52.387Z,13.20
2022-12-27T04:45:38.149Z,15.50
2022-12-27T04:48:24.193Z,10.50
2022-12-27T04:51:09.589Z,11.33
2022-12-27T04:53:54.753Z,11.87
2022-12-27T04:56:21.710Z,11.87
2022-12-27T04:59:07.070Z,12.83
2022-12-27T05:01:52.953Z,11.73
2022-12-27T05:04:19.979Z,17.23
2022-12-27T05:06:46.873Z,15.90
2022-12-27T05:09:32.544Z,13.77
2022-12-27T05:12:19.362Z,15.47
2022-12-27T05:14:47.591Z,15.87
2022-12-27T05:17:14.602Z,13.70
2022-12-27T05:19:41.631Z,15.60
2022-12-27T05:22:27.233Z,16.37
2022-12-27T05:25:12.355Z,14.33
2022-12-27T05:27:39.454Z,17.87
2022-12-27T05:30:06.753Z,14.37
2022-12-27T05:32:33.642Z,15.30
2022-12-27T05:35:00.466Z,14.37
2022-12-27T05:37:27.348Z,18.43
2022-12-27T05:39:54.169Z,17.40
2022-12-27T05:42:21.152Z,21.60
2022-12-27T05:44:48.046Z,23.00
2022-12-27T05:47:14.897Z,25.97
2022-12-27T05:49:41.781Z,21.13
2022-12-27T05:52:08.674Z,26.80
2022-12-27T05:54:35.631Z,23.77
2022-12-27T05:57:02.482Z,25.30
2022-12-27T05:59:29.386Z,23.83
2022-12-27T06:01:56.462Z,23.87
2022-12-27T06:04:23.539Z,24.77
2022-12-27T06:06:50.500Z,32.60
2022-12-27T06:09:17.345Z,26.43
2022-12-27T06:11:44.406Z,27.73
2022-12-27T06:14:11.315Z,25.83
2022-12-27T06:16:38.895Z,24.07
2022-12-27T06:19:05.817Z,32.50
2022-12-27T06:21:32.964Z,33.37
2022-12-27T06:24:00.181Z,31.07
2022-12-27T06:26:31.099Z,38.40
2022-12-27T06:28:59.657Z,26.73
2022-12-27T06:31:30.666Z,20.90
2022-12-27T06:33:57.749Z,20.20
2022-12-27T06:36:30.397Z,20.80
2022-12-27T06:38:58.473Z,24.13
2022-12-27T06:41:25.932Z,19.40
2022-12-27T06:43:58.164Z,14.63
2022-12-27T06:46:25.492Z,18.13
2022-12-27T06:48:52.624Z,23.37
2022-12-27T06:51:21.148Z,26.47
2022-12-27T06:53:49.023Z,24.00
2022-12-27T06:56:19.577Z,30.50
2022-12-27T06:58:47.861Z,29.17
2022-12-27T07:01:18.814Z,26.57
2022-12-27T07:03:53.639Z,25.70
2022-12-27T07:06:22.115Z,24.70
2022-12-27T07:08:50.476Z,23.70
2022-12-27T07:11:19.280Z,31.07
2022-12-27T07:13:51.404Z,22.50
2022-12-27T07:16:22.073Z,25.17
2022-12-27T07:18:50.051Z,32.20
2022-12-27T07:21:24.345Z,27.90
2022-12-27T07:23:51.672Z,29.90
2022-12-27T07:26:30.128Z,57.57
2022-12-27T07:29:01.380Z,49.33
2022-12-27T07:31:31.942Z,39.70
2022-12-27T07:34:01.829Z,31.97
2022-12-27T07:36:33.856Z,30.40
2022-12-27T07:39:00.700Z,27.77
2022-12-27T07:41:27.694Z,24.50
2022-12-27T07:43:54.755Z,32.57
2022-12-27T07:46:24.359Z,43.37
2022-12-27T07:48:57.199Z,44.23
2022-12-27T07:51:25.622Z,44.33
2022-12-27T07:53:53.117Z,38.47
2022-12-27T07:56:26.101Z,39.53
2022-12-27T07:58:55.563Z,30.80
2022-12-27T08:01:24.477Z,33.13
2022-12-27T08:03:52.908Z,25.90
2022-12-27T08:06:29.654Z,22.57
2022-12-27T08:08:59.097Z,21.47
2022-12-27T08:11:30.261Z,15.87
2022-12-27T08:13:58.698Z,22.53
2022-12-27T08:16:27.033Z,15.40
2022-12-27T08:18:54.414Z,14.27
2022-12-27T08:21:21.651Z,14.30
2022-12-27T08:23:48.535Z,18.50
2022-12-27T08:26:15.957Z,23.30
2022-12-27T08:28:43.747Z,29.43
2022-12-27T08:31:13.151Z,17.93
2022-12-27T08:33:41.962Z,17.43
2022-12-27T08:36:36.689Z,17.50
2022-12-27T08:38:58.920Z,18.17
2022-12-27T08:41:26.031Z,15.80
2022-12-27T08:43:52.967Z,13.07
2022-12-27T08:46:20.398Z,15.20
2022-12-27T08:48:51.679Z,14.10
2022-12-27T08:51:31.382Z,19.00
2022-12-27T08:54:00.461Z,13.43
2022-12-27T08:56:27.523Z,15.07
2022-12-27T08:58:54.425Z,15.87
2022-12-27T09:01:21.565Z,13.90
2022-12-27T09:03:48.585Z,13.37
2022-12-27T09:06:19.153Z,17.87
2022-12-27T09:08:47.668Z,20.77
2022-12-27T09:11:33.317Z,16.00
2022-12-27T09:14:05.318Z,13.70
2022-12-27T09:16:36.158Z,10.77
2022-12-27T09:19:03.990Z,14.33
2022-12-27T09:21:32.637Z,13.60
2022-12-27T09:23:59.777Z,11.83
2022-12-27T09:26:29.201Z,12.70
2022-12-27T09:28:57.216Z,11.67
2022-12-27T09:31:25.102Z,11.00
2022-12-27T09:33:53.008Z,11.80
2022-12-27T09:36:22.985Z,10.17
2022-12-27T09:38:52.766Z,8.73
2022-12-27T09:44:29.897Z,9.83
2022-12-27T09:47:04.139Z,7.67
2022-12-27T09:49:39.948Z,9.43
2022-12-27T09:52:06.940Z,8.93
2022-12-27T09:55:05.545Z,10.90
2022-12-27T09:57:44.223Z,14.30
2022-12-27T10:00:34.589Z,15.00
2022-12-27T10:03:06.017Z,16.43
2022-12-27T10:05:37.072Z,10.93
2022-12-27T10:08:39.498Z,8.03
2022-12-27T10:11:35.284Z,9.40
2022-12-27T10:14:25.048Z,13.97
2022-12-27T10:17:34.455Z,7.97
2022-12-27T10:20:10.355Z,8.87
2022-12-27T10:22:53.098Z,16.47
2022-12-27T10:25:23.336Z,11.97
2022-12-27T10:28:16.086Z,13.93
2022-12-27T10:30:44.128Z,17.33
2022-12-27T10:33:22.226Z,22.03
2022-12-27T10:35:49.285Z,25.47
2022-12-27T10:38:16.188Z,10.60
2022-12-27T10:41:11.709Z,11.53
2022-12-27T10:43:44.434Z,13.67
2022-12-27T10:46:19.410Z,11.80
2022-12-27T10:49:21.796Z,9.30
2022-12-27T10:51:51.895Z,12.17
2022-12-27T10:54:28.962Z,9.03
2022-12-27T10:57:19.188Z,13.17
2022-12-27T11:00:08.351Z,17.53
2022-12-27T11:02:48.398Z,12.87
2022-12-27T11:05:24.663Z,19.20
2022-12-27T11:07:52.514Z,18.87
2022-12-27T11:10:26.484Z,24.03
2022-12-27T11:12:57.196Z,13.20
2022-12-27T11:15:25.674Z,15.53
2022-12-27T11:17:56.009Z,16.60
2022-12-27T11:20:33.302Z,20.27
2022-12-27T11:23:33.837Z,21.87
2022-12-27T11:26:06.865Z,25.07
2022-12-27T11:28:42.067Z,21.03
2022-12-27T11:31:16.959Z,18.97
2022-12-27T11:33:52.134Z,10.10
2022-12-27T11:36:34.437Z,12.57
2022-12-27T11:39:02.063Z,12.13
2022-12-27T11:41:46.601Z,13.63
2022-12-27T11:44:29.643Z,12.70
2022-12-27T11:47:03.935Z,16.23
2022-12-27T11:49:58.799Z,9.23
2022-12-27T11:52:51.219Z,5.43
2022-12-27T11:55:27.315Z,6.73
2022-12-27T11:58:26.539Z,8.27
2022-12-27T12:01:11.164Z,7.83
2022-12-27T12:04:06.243Z,9.73
2022-12-27T12:06:54.987Z,8.00
2022-12-27T12:09:39.589Z,8.40
2022-12-27T12:12:29.360Z,7.37
2022-12-27T12:14:59.150Z,7.47
2022-12-27T12:17:35.581Z,6.70
2022-12-27T12:20:39.172Z,6.27
2022-12-27T12:23:10.481Z,7.50
2022-12-27T12:25:40.404Z,7.13
2022-12-27T12:28:56.205Z,8.97
2022-12-27T12:31:28.756Z,7.27
2022-12-27T12:33:58.413Z,8.43
2022-12-27T12:36:28.354Z,15.00
2022-12-27T12:38:58.486Z,8.63
2022-12-27T12:41:44.688Z,9.47
2022-12-27T12:44:29.971Z,9.67
2022-12-27T12:47:04.994Z,10.27
2022-12-27T12:49:51.098Z,9.70
2022-12-27T12:52:51.289Z,13.67
2022-12-27T12:55:26.937Z,9.53
2022-12-27T12:57:53.839Z,12.80
2022-12-27T13:00:54.847Z,13.70
2022-12-27T13:03:37.141Z,10.93
2022-12-27T13:06:28.164Z,12.53
2022-12-27T13:09:21.464Z,11.07
2022-12-27T13:12:16.218Z,8.27
2022-12-27T13:14:45.904Z,5.97
2022-12-27T13:17:15.774Z,4.93
2022-12-27T13:20:10.498Z,6.57
2022-12-27T13:22:47.655Z,6.27
2022-12-27T13:25:41.464Z,5.00
2022-12-27T13:28:26.938Z,7.60
2022-12-27T13:31:28.071Z,6.00
2022-12-27T13:34:19.603Z,6.60
2022-12-27T13:37:06.652Z,8.20
2022-12-27T13:40:28.652Z,6.67
2022-12-27T13:43:23.063Z,7.03
2022-12-27T13:46:12.817Z,7.00
2022-12-27T13:48:51.578Z,3.47
2022-12-27T13:51:21.428Z,4.30
2022-12-27T13:53:50.988Z,5.40
2022-12-27T13:59:35.049Z,4.43
2022-12-27T14:02:43.538Z,5.33
2022-12-27T14:05:29.159Z,3.70
2022-12-27T14:08:23.688Z,3.93
2022-12-27T14:10:58.684Z,5.67
2022-12-27T14:13:41.666Z,4.70
2022-12-27T14:16:33.577Z,5.40
2022-12-27T14:19:00.783Z,5.47
2022-12-27T14:21:52.870Z,4.63
2022-12-27T14:24:34.930Z,5.63
2022-12-27T14:27:29.686Z,4.90
2022-12-27T14:30:05.754Z,7.20
2022-12-27T14:33:09.966Z,6.13
2022-12-27T14:36:05.900Z,4.80
2022-12-27T14:38:54.003Z,4.33
2022-12-27T14:41:48.804Z,5.17
2022-12-27T14:44:52.534Z,4.83
2022-12-27T14:47:55.763Z,5.33
2022-12-27T14:50:44.161Z,6.20
2022-12-27T14:53:39.536Z,4.57
2022-12-27T14:56:25.227Z,3.97
2022-12-27T14:58:57.992Z,3.63
2022-12-27T15:01:48.525Z,4.57
2022-12-27T15:04:30.792Z,4.93
2022-12-27T15:07:35.252Z,3.20
2022-12-27T15:10:18.411Z,3.07
2022-12-27T15:13:01.671Z,3.57
2022-12-27T15:15:39.200Z,2.80
2022-12-27T15:18:36.997Z,3.20
2022-12-27T15:21:26.267Z,3.17
2022-12-27T15:24:22.886Z,2.90
2022-12-27T15:26:55.264Z,4.10
2022-12-27T15:29:41.087Z,2.97
2022-12-27T15:32:26.600Z,3.13
2022-12-27T15:35:05.493Z,2.63
2022-12-27T15:38:31.966Z,3.63
2022-12-27T15:41:13.926Z,3.30
2022-12-27T15:43:47.148Z,3.87
2022-12-27T15:46:45.998Z,3.67
2022-12-27T15:49:27.403Z,6.17
2022-12-27T15:52:15.742Z,2.83
2022-12-27T15:55:10.831Z,2.60
2022-12-27T15:57:59.070Z,1.47
2022-12-27T16:00:33.563Z,2.50
2022-12-27T16:03:04.031Z,2.73
2022-12-27T16:05:46.239Z,2.20
2022-12-27T16:08:38.958Z,2.20
2022-12-27T16:11:09.777Z,2.80
2022-12-27T16:13:44.252Z,2.30
2022-12-27T16:16:32.646Z,3.90
2022-12-27T16:19:49.206Z,4.43
2022-12-27T16:22:30.161Z,2.53
2022-12-27T16:24:58.247Z,3.67
2022-12-27T16:27:32.409Z,3.37
2022-12-27T16:29:59.905Z,2.30
2022-12-27T16:32:28.539Z,2.77
2022-12-27T16:35:11.234Z,3.10
2022-12-27T16:37:45.414Z,2.80
2022-12-27T16:40:21.125Z,7.13
2022-12-27T16:42:54.157Z,2.47
2022-12-27T16:45:32.096Z,2.40
2022-12-27T16:48:39.173Z,7.10
2022-12-27T16:51:15.007Z,2.67
2022-12-27T16:54:16.702Z,2.47
2022-12-27T16:56:48.203Z,6.03
2022-12-27T16:59:52.652Z,6.90
2022-12-27T17:02:42.087Z,5.63
2022-12-27T17:05:34.424Z,9.13
2022-12-27T17:08:01.361Z,4.27
2022-12-27T17:10:28.301Z,4.83
2022-12-27T17:13:16.717Z,5.10
2022-12-27T17:16:23.073Z,17.97
2022-12-27T17:19:04.358Z,14.67
2022-12-27T17:21:35.916Z,2.60
2022-12-27T17:24:21.205Z,2.73
2022-12-27T17:27:06.944Z,5.27
2022-12-27T17:29:55.523Z,3.00
2022-12-27T17:32:40.459Z,2.50
2022-12-27T17:35:28.853Z,3.53
2022-12-27T17:38:09.187Z,2.30
2022-12-27T17:40:43.406Z,2.13
2022-12-27T17:44:01.330Z,3.60
2022-12-27T17:47:34.524Z,3.77
2022-12-27T17:50:03.828Z,3.10
2022-12-27T17:52:49.793Z,2.10
2022-12-27T17:55:53.241Z,3.63
2022-12-27T17:58:20.151Z,4.70
2022-12-27T18:01:00.160Z,4.47
2022-12-27T18:03:37.123Z,2.57
2022-12-27T18:06:04.558Z,3.17
2022-12-27T18:08:34.276Z,1.53
2022-12-27T18:11:03.643Z,2.63
2022-12-27T18:13:35.336Z,1.80
2022-12-27T18:16:14.346Z,1.53
2022-12-27T18:18:45.499Z,2.57
2022-12-27T18:21:25.652Z,3.93
2022-12-27T18:23:54.010Z,4.77
2022-12-27T18:26:31.611Z,2.87
2022-12-27T18:28:59.126Z,2.40
2022-12-27T18:31:33.943Z,3.73
2022-12-27T18:34:07.064Z,2.83
2022-12-27T18:36:48.078Z,3.83
2022-12-27T18:39:38.858Z,2.73
2022-12-27T18:42:39.916Z,3.30
2022-12-27T18:45:28.882Z,2.23
2022-12-27T18:47:59.778Z,3.07
2022-12-27T18:50:29.683Z,2.33
2022-12-27T18:53:08.069Z,3.10
2022-12-27T18:55:35.220Z,2.30
2022-12-27T18:58:20.417Z,2.17
2022-12-27T19:00:52.728Z,3.10
2022-12-27T19:03:20.973Z,3.20
2022-12-27T19:06:12.681Z,2.30
2022-12-27T19:08:39.544Z,2.43
2022-12-27T19:11:07.926Z,3.87
2022-12-27T19:13:43.468Z,3.60
2022-12-27T19:16:22.113Z,5.20
2022-12-27T19:19:03.513Z,2.80
2022-12-27T19:21:39.878Z,1.90
2022-12-27T19:24:27.545Z,1.83
2022-12-27T19:26:56.796Z,2.10
2022-12-27T19:29:27.283Z,2.33
2022-12-27T19:32:01.461Z,1.63
2022-12-27T19:34:48.169Z,2.77
2022-12-27T19:37:15.231Z,2.13
2022-12-27T19:39:43.867Z,1.50
2022-12-27T19:42:34.864Z,3.27
2022-12-27T19:45:02.017Z,1.70
2022-12-27T19:47:32.246Z,1.90
2022-12-27T19:49:59.104Z,1.67
2022-12-27T19:52:27.340Z,1.67
2022-12-27T19:55:01.669Z,1.23
2022-12-27T19:57:30.630Z,2.27
2022-12-27T19:59:57.469Z,2.20
2022-12-27T20:02:24.630Z,3.33
2022-12-27T20:04:52.201Z,2.17
2022-12-27T20:07:24.684Z,2.73
2022-12-27T20:09:51.649Z,1.80
2022-12-27T20:12:19.659Z,1.60
2022-12-27T20:14:47.557Z,2.00
2022-12-27T20:17:14.542Z,1.97
2022-12-27T20:19:41.644Z,1.40
2022-12-27T20:22:08.546Z,1.60
2022-12-27T20:24:37.009Z,1.77
2022-12-27T20:27:04.816Z,2.20
2022-12-27T20:29:32.108Z,1.97
2022-12-27T20:31:59.251Z,1.60
2022-12-27T20:34:26.257Z,3.53
2022-12-27T20:36:55.349Z,1.70
2022-12-27T20:39:22.350Z,2.30
2022-12-27T20:41:49.342Z,3.93
2022-12-27T20:44:16.171Z,1.83
2022-12-27T20:46:43.134Z,2.17
2022-12-27T20:49:10.360Z,2.07
2022-12-27T20:51:37.527Z,1.80
2022-12-27T20:54:05.019Z,2.13
2022-12-27T20:56:32.285Z,2.47
2022-12-27T20:58:59.146Z,2.00
2022-12-27T21:01:26.668Z,2.40
2022-12-27T21:03:56.087Z,3.60
2022-12-27T21:06:25.530Z,1.90
2022-12-27T21:08:57.220Z,2.47
2022-12-27T21:11:29.219Z,2.03
2022-12-27T21:13:56.196Z,3.00
2022-12-27T21:16:26.144Z,5.03
2022-12-27T21:18:54.590Z,1.90
2022-12-27T21:21:26.886Z,1.83
2022-12-27T21:23:55.128Z,2.53
2022-12-27T21:26:25.371Z,2.27
2022-12-27T21:28:53.048Z,4.43
2022-12-27T21:31:20.184Z,4.97
2022-12-27T21:33:48.087Z,2.10
2022-12-27T21:36:18.180Z,1.90
2022-12-27T21:38:45.650Z,2.40
2022-12-27T21:41:16.695Z,2.87
2022-12-27T21:43:44.895Z,1.70
2022-12-27T21:46:15.954Z,2.47
2022-12-27T21:48:43.744Z,1.77
2022-12-27T21:51:13.510Z,2.10
2022-12-27T21:53:41.543Z,1.90
2022-12-27T21:56:09.867Z,3.73
2022-12-27T21:58:38.393Z,3.00
2022-12-27T22:01:09.337Z,2.03
2022-12-27T22:03:39.211Z,1.70
2022-12-27T22:06:46.367Z,2.27
2022-12-27T22:09:13.978Z,2.10
2022-12-27T22:11:40.898Z,3.23
2022-12-27T22:14:07.954Z,1.77
2022-12-27T22:16:37.443Z,2.00
2022-12-27T22:19:10.073Z,1.93
2022-12-27T22:21:38.761Z,3.33
2022-12-27T22:24:06.288Z,2.07
2022-12-27T22:26:37.504Z,3.40
2022-12-27T22:29:05.786Z,2.93
2022-12-27T22:31:36.702Z,2.97
2022-12-27T22:34:05.219Z,1.63
2022-12-27T22:36:32.105Z,2.43
2022-12-27T22:39:00.145Z,1.87
2022-12-27T22:41:32.118Z,2.13
2022-12-27T22:44:04.578Z,2.00
2022-12-27T22:46:58.721Z,2.20
2022-12-27T22:49:18.983Z,1.90
2022-12-27T22:51:46.290Z,2.30
2022-12-27T22:54:13.256Z,2.93
2022-12-27T22:56:42.227Z,3.50
2022-12-27T22:59:11.682Z,2.90
2022-12-27T23:01:39.745Z,4.07
2022-12-27T23:04:08.842Z,3.10
2022-12-27T23:06:36.849Z,2.53
2022-12-27T23:09:04.656Z,3.53
2022-12-27T23:11:34.797Z,3.80
2022-12-27T23:14:05.120Z,2.20
2022-12-27T23:16:43.647Z,2.00
2022-12-27T23:19:11.420Z,1.67
2022-12-27T23:21:39.843Z,1.60
2022-12-27T23:24:07.374Z,2.07
2022-12-27T23:26:34.315Z,2.00
2022-12-27T23:29:01.490Z,1.60
2022-12-27T23:31:28.920Z,2.40
2022-12-27T23:33:56.236Z,1.67
2022-12-27T23:36:23.590Z,1.73
2022-12-27T23:38:51.050Z,1.93
2022-12-27T23:41:23.163Z,2.77
2022-12-27T23:43:52.898Z,2.00
2022-12-27T23:46:29.773Z,2.20
2022-12-27T23:48:58.680Z,1.97
2022-12-27T23:51:26.155Z,2.53
2022-12-27T23:53:53.277Z,2.00
2022-12-27T23:56:29.596Z,3.50
2022-12-27T23:58:58.570Z,3.17
